DAL1573 KMCO-KLGA
Flight info
| Callsign | DAL1573 |
|---|---|
| Flight time | N/A |
| Altitude | 35000 |
| Route | FATHE4 VIYAP Q87 HURTS PROUD2 |
| Aircraft | A321/M-SDE3FGHIRWY/LB1 |
Departure
| Time | 2026-04-23 13:01 |
|---|---|
| Airport | Orlando International Airport (KMCO) |
Arrival
| Time | N/A |
|---|---|
| Airport | LaGuardia Airport (KLGA) |
| Time | Latitude | Longitude | Altitude | Speed | Heading |
|---|---|---|---|---|---|
| 2026-04-23 12:46 | 28.42617 | -81.30009 | 94 ft | 0 kts | 240° |
| 2026-04-23 12:50 | 28.42625 | -81.29992 | 95 ft | 3 kts | 240° |
| 2026-04-23 12:50 | 28.42634 | -81.29974 | 95 ft | 3 kts | 240° |
| 2026-04-23 12:51 | 28.42643 | -81.29955 | 94 ft | 3 kts | 240° |
| 2026-04-23 12:51 | 28.42653 | -81.29936 | 95 ft | 3 kts | 240° |
| 2026-04-23 12:51 | 28.42662 | -81.29918 | 95 ft | 3 kts | 243° |
| 2026-04-23 12:51 | 28.42668 | -81.29897 | 94 ft | 3 kts | 273° |
| 2026-04-23 12:52 | 28.42667 | -81.29886 | 94 ft | 0 kts | 278° |
| 2026-04-23 12:55 | 28.42671 | -81.29892 | 94 ft | 2 kts | 302° |
| 2026-04-23 12:56 | 28.42691 | -81.29894 | 96 ft | 3 kts | 7° |
| 2026-04-23 12:56 | 28.42714 | -81.29891 | 94 ft | 6 kts | 9° |
| 2026-04-23 12:56 | 28.42774 | -81.29883 | 95 ft | 9 kts | 1° |
| 2026-04-23 12:56 | 28.42832 | -81.29883 | 96 ft | 8 kts | 360° |
| 2026-04-23 12:57 | 28.42887 | -81.29882 | 96 ft | 8 kts | 6° |
| 2026-04-23 12:57 | 28.42911 | -81.29832 | 95 ft | 9 kts | 88° |
| 2026-04-23 12:57 | 28.42912 | -81.29758 | 95 ft | 10 kts | 89° |
| 2026-04-23 12:57 | 28.42947 | -81.29707 | 95 ft | 8 kts | 11° |
| 2026-04-23 12:58 | 28.43008 | -81.29707 | 98 ft | 11 kts | 359° |
| 2026-04-23 12:58 | 28.43100 | -81.29708 | 96 ft | 13 kts | 359° |
| 2026-04-23 12:58 | 28.43187 | -81.29709 | 97 ft | 12 kts | 359° |
| 2026-04-23 12:58 | 28.43281 | -81.29710 | 96 ft | 18 kts | 359° |
| 2026-04-23 12:59 | 28.43418 | -81.29711 | 96 ft | 20 kts | 359° |
| 2026-04-23 12:59 | 28.43518 | -81.29711 | 96 ft | 11 kts | 6° |
| 2026-04-23 12:59 | 28.43550 | -81.29653 | 96 ft | 8 kts | 88° |
| 2026-04-23 12:59 | 28.43546 | -81.29597 | 97 ft | 6 kts | 117° |
| 2026-04-23 13:00 | 28.43516 | -81.29588 | 98 ft | 5 kts | 178° |
| 2026-04-23 13:00 | 28.43399 | -81.29586 | 98 ft | 45 kts | 179° |
| 2026-04-23 13:00 | 28.42847 | -81.29580 | 98 ft | 111 kts | 179° |
| 2026-04-23 13:00 | 28.41892 | -81.29570 | 99 ft | 161 kts | 179° |
| 2026-04-23 13:01 | 28.40709 | -81.29565 | 511 ft | 168 kts | 180° |
| 2026-04-23 13:01 | 28.39554 | -81.29572 | 1223 ft | 165 kts | 179° |
| 2026-04-23 13:01 | 28.38413 | -81.29427 | 1784 ft | 168 kts | 159° |
| 2026-04-23 13:01 | 28.37365 | -81.28728 | 2058 ft | 182 kts | 142° |
| 2026-04-23 13:02 | 28.36329 | -81.27839 | 2387 ft | 192 kts | 142° |
| 2026-04-23 13:02 | 28.35244 | -81.26875 | 2713 ft | 203 kts | 140° |
| 2026-04-23 13:02 | 28.34177 | -81.25724 | 2909 ft | 222 kts | 134° |
| 2026-04-23 13:02 | 28.33041 | -81.24393 | 3138 ft | 247 kts | 129° |
| 2026-04-23 13:03 | 28.32276 | -81.22631 | 3730 ft | 256 kts | 100° |
| 2026-04-23 13:03 | 28.32274 | -81.20596 | 4476 ft | 261 kts | 85° |
| 2026-04-23 13:03 | 28.32497 | -81.18542 | 5273 ft | 264 kts | 83° |
| 2026-04-23 13:03 | 28.32875 | -81.16500 | 6057 ft | 267 kts | 69° |
| 2026-04-23 13:04 | 28.33907 | -81.14739 | 6814 ft | 274 kts | 45° |
| 2026-04-23 13:04 | 28.35554 | -81.13636 | 7502 ft | 281 kts | 18° |
| 2026-04-23 13:04 | 28.37486 | -81.13493 | 8202 ft | 287 kts | 350° |
| 2026-04-23 13:04 | 28.39426 | -81.14085 | 8947 ft | 290 kts | 344° |